sensor_id;sensor_type;location;lat;lon;timestamp;P1;durP1;ratioP1;P2;durP2;ratioP2
3747;SDS011;1889;50.058;8.688;2023-09-18T00:00:23;6.40;;;5.03;;
3747;SDS011;1889;50.058;8.688;2023-09-18T00:02:52;6.73;;;5.23;;
3747;SDS011;1889;50.058;8.688;2023-09-18T00:05:21;7.37;;;4.80;;
3747;SDS011;1889;50.058;8.688;2023-09-18T00:07:50;7.13;;;5.47;;
3747;SDS011;1889;50.058;8.688;2023-09-18T00:10:19;6.83;;;5.60;;
3747;SDS011;1889;50.058;8.688;2023-09-18T00:12:48;7.27;;;5.40;;
3747;SDS011;1889;50.058;8.688;2023-09-18T00:15:17;8.37;;;5.53;;
3747;SDS011;1889;50.058;8.688;2023-09-18T00:17:46;8.97;;;4.43;;
3747;SDS011;1889;50.058;8.688;2023-09-18T00:20:15;8.70;;;5.43;;
3747;SDS011;1889;50.058;8.688;2023-09-18T00:22:45;7.47;;;5.83;;
3747;SDS011;1889;50.058;8.688;2023-09-18T00:25:14;7.67;;;5.07;;
3747;SDS011;1889;50.058;8.688;2023-09-18T00:27:44;10.33;;;5.57;;
3747;SDS011;1889;50.058;8.688;2023-09-18T00:30:13;6.77;;;5.03;;
3747;SDS011;1889;50.058;8.688;2023-09-18T00:32:42;5.73;;;5.10;;
3747;SDS011;1889;50.058;8.688;2023-09-18T00:35:11;7.70;;;5.77;;
3747;SDS011;1889;50.058;8.688;2023-09-18T00:37:40;8.23;;;5.50;;
3747;SDS011;1889;50.058;8.688;2023-09-18T00:40:10;7.83;;;5.87;;
3747;SDS011;1889;50.058;8.688;2023-09-18T00:42:40;9.23;;;5.40;;
3747;SDS011;1889;50.058;8.688;2023-09-18T00:45:09;7.97;;;4.80;;
3747;SDS011;1889;50.058;8.688;2023-09-18T00:47:38;5.83;;;4.80;;
3747;SDS011;1889;50.058;8.688;2023-09-18T00:50:07;9.33;;;5.20;;
3747;SDS011;1889;50.058;8.688;2023-09-18T00:52:38;8.07;;;5.30;;
3747;SDS011;1889;50.058;8.688;2023-09-18T00:55:08;7.03;;;5.50;;
3747;SDS011;1889;50.058;8.688;2023-09-18T00:57:38;6.97;;;4.80;;
3747;SDS011;1889;50.058;8.688;2023-09-18T01:00:08;6.97;;;4.73;;
3747;SDS011;1889;50.058;8.688;2023-09-18T01:02:38;6.23;;;5.47;;
3747;SDS011;1889;50.058;8.688;2023-09-18T01:05:07;7.63;;;5.07;;
3747;SDS011;1889;50.058;8.688;2023-09-18T01:07:36;6.70;;;5.27;;
3747;SDS011;1889;50.058;8.688;2023-09-18T01:10:06;8.63;;;5.70;;
3747;SDS011;1889;50.058;8.688;2023-09-18T01:15:22;9.77;;;5.93;;
3747;SDS011;1889;50.058;8.688;2023-09-18T01:18:02;8.03;;;5.27;;
3747;SDS011;1889;50.058;8.688;2023-09-18T01:20:32;8.03;;;4.90;;
3747;SDS011;1889;50.058;8.688;2023-09-18T01:23:01;5.23;;;4.73;;
3747;SDS011;1889;50.058;8.688;2023-09-18T01:25:31;8.00;;;5.10;;
3747;SDS011;1889;50.058;8.688;2023-09-18T01:28:01;7.67;;;5.23;;
3747;SDS011;1889;50.058;8.688;2023-09-18T01:30:31;7.17;;;5.00;;
3747;SDS011;1889;50.058;8.688;2023-09-18T01:33:01;9.33;;;5.80;;
3747;SDS011;1889;50.058;8.688;2023-09-18T01:35:31;6.43;;;5.03;;
3747;SDS011;1889;50.058;8.688;2023-09-18T01:38:02;6.43;;;5.73;;
3747;SDS011;1889;50.058;8.688;2023-09-18T01:40:31;6.47;;;5.37;;
3747;SDS011;1889;50.058;8.688;2023-09-18T01:43:01;7.07;;;5.73;;
3747;SDS011;1889;50.058;8.688;2023-09-18T01:45:30;6.33;;;5.00;;
3747;SDS011;1889;50.058;8.688;2023-09-18T01:47:59;8.73;;;5.77;;
3747;SDS011;1889;50.058;8.688;2023-09-18T01:50:30;8.43;;;5.67;;
3747;SDS011;1889;50.058;8.688;2023-09-18T01:52:59;6.80;;;4.90;;
3747;SDS011;1889;50.058;8.688;2023-09-18T01:55:28;5.23;;;4.73;;
3747;SDS011;1889;50.058;8.688;2023-09-18T01:57:58;7.87;;;5.00;;
3747;SDS011;1889;50.058;8.688;2023-09-18T02:00:27;6.97;;;5.13;;
3747;SDS011;1889;50.058;8.688;2023-09-18T02:02:56;5.90;;;4.80;;
3747;SDS011;1889;50.058;8.688;2023-09-18T02:05:25;6.30;;;4.50;;
3747;SDS011;1889;50.058;8.688;2023-09-18T02:07:54;5.30;;;4.73;;
3747;SDS011;1889;50.058;8.688;2023-09-18T02:10:23;5.70;;;4.77;;
3747;SDS011;1889;50.058;8.688;2023-09-18T02:12:52;8.70;;;5.20;;
3747;SDS011;1889;50.058;8.688;2023-09-18T02:15:21;5.47;;;4.90;;
3747;SDS011;1889;50.058;8.688;2023-09-18T02:17:50;5.17;;;4.33;;
3747;SDS011;1889;50.058;8.688;2023-09-18T02:20:20;6.90;;;5.17;;
3747;SDS011;1889;50.058;8.688;2023-09-18T02:22:49;9.03;;;5.30;;
3747;SDS011;1889;50.058;8.688;2023-09-18T02:25:18;7.33;;;5.73;;
3747;SDS011;1889;50.058;8.688;2023-09-18T02:27:47;6.90;;;5.33;;
3747;SDS011;1889;50.058;8.688;2023-09-18T02:30:17;6.17;;;5.17;;
3747;SDS011;1889;50.058;8.688;2023-09-18T02:32:46;6.53;;;5.30;;
3747;SDS011;1889;50.058;8.688;2023-09-18T02:35:15;6.67;;;5.23;;
3747;SDS011;1889;50.058;8.688;2023-09-18T02:37:44;7.83;;;5.43;;
3747;SDS011;1889;50.058;8.688;2023-09-18T02:40:13;6.87;;;5.83;;
3747;SDS011;1889;50.058;8.688;2023-09-18T02:42:42;9.50;;;5.73;;
3747;SDS011;1889;50.058;8.688;2023-09-18T02:45:12;5.90;;;5.27;;
3747;SDS011;1889;50.058;8.688;2023-09-18T02:47:41;7.30;;;5.67;;
3747;SDS011;1889;50.058;8.688;2023-09-18T02:50:10;7.67;;;5.87;;
3747;SDS011;1889;50.058;8.688;2023-09-18T02:52:39;6.50;;;5.73;;
3747;SDS011;1889;50.058;8.688;2023-09-18T02:55:08;6.10;;;5.40;;
3747;SDS011;1889;50.058;8.688;2023-09-18T02:57:37;6.17;;;5.57;;
3747;SDS011;1889;50.058;8.688;2023-09-18T03:00:06;7.00;;;5.07;;
3747;SDS011;1889;50.058;8.688;2023-09-18T03:02:36;9.33;;;5.90;;
3747;SDS011;1889;50.058;8.688;2023-09-18T03:05:05;5.83;;;5.30;;
3747;SDS011;1889;50.058;8.688;2023-09-18T03:07:35;6.90;;;6.00;;
3747;SDS011;1889;50.058;8.688;2023-09-18T03:10:05;7.17;;;5.20;;
3747;SDS011;1889;50.058;8.688;2023-09-18T03:12:34;7.10;;;6.10;;
3747;SDS011;1889;50.058;8.688;2023-09-18T03:15:03;7.80;;;6.00;;
3747;SDS011;1889;50.058;8.688;2023-09-18T03:17:33;8.63;;;5.77;;
3747;SDS011;1889;50.058;8.688;2023-09-18T03:20:02;8.60;;;6.40;;
3747;SDS011;1889;50.058;8.688;2023-09-18T03:22:31;7.80;;;6.90;;
3747;SDS011;1889;50.058;8.688;2023-09-18T03:25:00;9.40;;;6.97;;
3747;SDS011;1889;50.058;8.688;2023-09-18T03:27:30;10.57;;;6.50;;
3747;SDS011;1889;50.058;8.688;2023-09-18T03:29:59;11.03;;;6.13;;
3747;SDS011;1889;50.058;8.688;2023-09-18T03:32:28;8.00;;;5.70;;
3747;SDS011;1889;50.058;8.688;2023-09-18T03:34:57;8.97;;;6.67;;
3747;SDS011;1889;50.058;8.688;2023-09-18T03:37:26;6.77;;;5.70;;
3747;SDS011;1889;50.058;8.688;2023-09-18T03:39:55;6.33;;;5.67;;
3747;SDS011;1889;50.058;8.688;2023-09-18T03:42:25;8.03;;;5.37;;
3747;SDS011;1889;50.058;8.688;2023-09-18T03:44:54;7.43;;;5.43;;
3747;SDS011;1889;50.058;8.688;2023-09-18T03:47:23;5.47;;;4.77;;
3747;SDS011;1889;50.058;8.688;2023-09-18T03:49:52;6.40;;;4.70;;
3747;SDS011;1889;50.058;8.688;2023-09-18T03:52:21;7.13;;;4.77;;
3747;SDS011;1889;50.058;8.688;2023-09-18T03:54:51;5.47;;;4.77;;
3747;SDS011;1889;50.058;8.688;2023-09-18T03:57:20;8.80;;;5.60;;
3747;SDS011;1889;50.058;8.688;2023-09-18T03:59:49;7.70;;;5.30;;
3747;SDS011;1889;50.058;8.688;2023-09-18T04:02:18;7.27;;;5.23;;
3747;SDS011;1889;50.058;8.688;2023-09-18T04:04:47;7.30;;;4.87;;
3747;SDS011;1889;50.058;8.688;2023-09-18T04:07:16;16.17;;;5.80;;
3747;SDS011;1889;50.058;8.688;2023-09-18T04:09:46;8.93;;;5.70;;
3747;SDS011;1889;50.058;8.688;2023-09-18T04:12:15;8.30;;;5.37;;
3747;SDS011;1889;50.058;8.688;2023-09-18T04:14:44;9.93;;;5.97;;
3747;SDS011;1889;50.058;8.688;2023-09-18T04:17:13;10.10;;;5.83;;
3747;SDS011;1889;50.058;8.688;2023-09-18T04:19:43;7.27;;;5.50;;
3747;SDS011;1889;50.058;8.688;2023-09-18T04:22:12;6.97;;;5.83;;
3747;SDS011;1889;50.058;8.688;2023-09-18T04:24:41;8.43;;;5.30;;
3747;SDS011;1889;50.058;8.688;2023-09-18T04:27:10;8.50;;;5.13;;
3747;SDS011;1889;50.058;8.688;2023-09-18T04:29:39;8.90;;;5.70;;
3747;SDS011;1889;50.058;8.688;2023-09-18T04:32:08;8.70;;;5.23;;
3747;SDS011;1889;50.058;8.688;2023-09-18T04:34:37;5.53;;;4.50;;
3747;SDS011;1889;50.058;8.688;2023-09-18T04:37:06;7.73;;;5.27;;
3747;SDS011;1889;50.058;8.688;2023-09-18T04:39:35;7.03;;;4.97;;
3747;SDS011;1889;50.058;8.688;2023-09-18T04:42:04;8.53;;;5.03;;
3747;SDS011;1889;50.058;8.688;2023-09-18T04:44:33;7.70;;;5.07;;
3747;SDS011;1889;50.058;8.688;2023-09-18T04:47:02;7.83;;;5.57;;
3747;SDS011;1889;50.058;8.688;2023-09-18T04:49:33;9.57;;;5.37;;
3747;SDS011;1889;50.058;8.688;2023-09-18T04:52:02;8.93;;;5.20;;
3747;SDS011;1889;50.058;8.688;2023-09-18T04:54:32;8.87;;;4.40;;
3747;SDS011;1889;50.058;8.688;2023-09-18T04:57:01;7.17;;;5.60;;
3747;SDS011;1889;50.058;8.688;2023-09-18T04:59:31;6.30;;;5.00;;
3747;SDS011;1889;50.058;8.688;2023-09-18T05:02:00;8.23;;;4.47;;
3747;SDS011;1889;50.058;8.688;2023-09-18T05:04:29;5.33;;;4.30;;
3747;SDS011;1889;50.058;8.688;2023-09-18T05:06:58;8.67;;;4.50;;
3747;SDS011;1889;50.058;8.688;2023-09-18T05:09:29;5.63;;;4.73;;
3747;SDS011;1889;50.058;8.688;2023-09-18T05:11:59;7.53;;;4.03;;
3747;SDS011;1889;50.058;8.688;2023-09-18T05:14:29;9.27;;;4.80;;
3747;SDS011;1889;50.058;8.688;2023-09-18T05:16:58;6.87;;;4.27;;
3747;SDS011;1889;50.058;8.688;2023-09-18T05:19:27;6.63;;;3.93;;
3747;SDS011;1889;50.058;8.688;2023-09-18T05:21:56;5.20;;;3.97;;
3747;SDS011;1889;50.058;8.688;2023-09-18T05:24:25;8.80;;;5.80;;
3747;SDS011;1889;50.058;8.688;2023-09-18T05:26:54;8.33;;;4.30;;
3747;SDS011;1889;50.058;8.688;2023-09-18T05:29:23;6.97;;;4.07;;
3747;SDS011;1889;50.058;8.688;2023-09-18T05:31:52;7.60;;;4.10;;
3747;SDS011;1889;50.058;8.688;2023-09-18T05:34:21;7.97;;;4.20;;
3747;SDS011;1889;50.058;8.688;2023-09-18T05:36:51;5.80;;;4.07;;
3747;SDS011;1889;50.058;8.688;2023-09-18T05:39:20;7.33;;;4.03;;
3747;SDS011;1889;50.058;8.688;2023-09-18T05:41:49;6.30;;;3.80;;
3747;SDS011;1889;50.058;8.688;2023-09-18T05:44:18;10.30;;;3.80;;
3747;SDS011;1889;50.058;8.688;2023-09-18T05:46:47;8.03;;;4.17;;
3747;SDS011;1889;50.058;8.688;2023-09-18T05:49:16;11.93;;;4.63;;
3747;SDS011;1889;50.058;8.688;2023-09-18T05:51:45;8.90;;;3.70;;
3747;SDS011;1889;50.058;8.688;2023-09-18T05:54:16;6.77;;;4.17;;
3747;SDS011;1889;50.058;8.688;2023-09-18T05:56:45;7.20;;;3.23;;
3747;SDS011;1889;50.058;8.688;2023-09-18T05:59:15;8.80;;;3.80;;
3747;SDS011;1889;50.058;8.688;2023-09-18T06:01:45;7.23;;;4.00;;
3747;SDS011;1889;50.058;8.688;2023-09-18T06:04:16;6.90;;;3.23;;
3747;SDS011;1889;50.058;8.688;2023-09-18T06:06:45;8.80;;;3.90;;
3747;SDS011;1889;50.058;8.688;2023-09-18T06:09:14;9.90;;;4.10;;
3747;SDS011;1889;50.058;8.688;2023-09-18T06:11:43;4.43;;;3.60;;
3747;SDS011;1889;50.058;8.688;2023-09-18T06:14:12;9.63;;;3.50;;
3747;SDS011;1889;50.058;8.688;2023-09-18T06:16:41;8.30;;;3.50;;
3747;SDS011;1889;50.058;8.688;2023-09-18T06:19:10;7.30;;;3.60;;
3747;SDS011;1889;50.058;8.688;2023-09-18T06:21:41;12.28;;;3.87;;
3747;SDS011;1889;50.058;8.688;2023-09-18T06:24:10;7.73;;;3.83;;
3747;SDS011;1889;50.058;8.688;2023-09-18T06:26:39;10.80;;;4.00;;
3747;SDS011;1889;50.058;8.688;2023-09-18T06:29:08;12.07;;;3.67;;
3747;SDS011;1889;50.058;8.688;2023-09-18T06:31:37;7.30;;;3.67;;
3747;SDS011;1889;50.058;8.688;2023-09-18T06:34:06;7.20;;;3.83;;
3747;SDS011;1889;50.058;8.688;2023-09-18T06:36:35;8.13;;;4.03;;
3747;SDS011;1889;50.058;8.688;2023-09-18T06:39:04;7.37;;;3.50;;
3747;SDS011;1889;50.058;8.688;2023-09-18T06:41:33;10.17;;;3.83;;
3747;SDS011;1889;50.058;8.688;2023-09-18T06:44:02;5.70;;;3.10;;
3747;SDS011;1889;50.058;8.688;2023-09-18T06:46:31;7.10;;;2.90;;
3747;SDS011;1889;50.058;8.688;2023-09-18T06:49:01;8.50;;;3.30;;
3747;SDS011;1889;50.058;8.688;2023-09-18T06:51:30;9.73;;;3.80;;
3747;SDS011;1889;50.058;8.688;2023-09-18T06:53:59;6.73;;;3.10;;
3747;SDS011;1889;50.058;8.688;2023-09-18T06:56:29;11.17;;;3.97;;
3747;SDS011;1889;50.058;8.688;2023-09-18T06:58:58;6.80;;;3.63;;
3747;SDS011;1889;50.058;8.688;2023-09-18T07:01:27;5.97;;;3.20;;
3747;SDS011;1889;50.058;8.688;2023-09-18T07:03:58;6.23;;;3.03;;
3747;SDS011;1889;50.058;8.688;2023-09-18T07:06:27;9.10;;;3.97;;
3747;SDS011;1889;50.058;8.688;2023-09-18T07:08:56;5.97;;;3.53;;
3747;SDS011;1889;50.058;8.688;2023-09-18T07:11:26;8.30;;;3.13;;
3747;SDS011;1889;50.058;8.688;2023-09-18T07:13:55;8.47;;;3.27;;
3747;SDS011;1889;50.058;8.688;2023-09-18T07:16:24;7.10;;;3.63;;
3747;SDS011;1889;50.058;8.688;2023-09-18T07:18:53;10.73;;;3.77;;
3747;SDS011;1889;50.058;8.688;2023-09-18T07:21:22;6.03;;;3.27;;
3747;SDS011;1889;50.058;8.688;2023-09-18T07:23:52;7.87;;;3.53;;
3747;SDS011;1889;50.058;8.688;2023-09-18T07:26:21;9.07;;;3.40;;
3747;SDS011;1889;50.058;8.688;2023-09-18T07:28:50;9.73;;;3.77;;
3747;SDS011;1889;50.058;8.688;2023-09-18T07:31:19;7.30;;;3.00;;
3747;SDS011;1889;50.058;8.688;2023-09-18T07:33:48;8.53;;;3.40;;
3747;SDS011;1889;50.058;8.688;2023-09-18T07:36:17;7.20;;;4.13;;
3747;SDS011;1889;50.058;8.688;2023-09-18T07:38:47;7.83;;;3.43;;
3747;SDS011;1889;50.058;8.688;2023-09-18T07:41:16;8.43;;;3.70;;
3747;SDS011;1889;50.058;8.688;2023-09-18T07:43:46;9.20;;;3.33;;
3747;SDS011;1889;50.058;8.688;2023-09-18T07:46:15;7.97;;;3.70;;
3747;SDS011;1889;50.058;8.688;2023-09-18T07:48:44;12.17;;;4.00;;
3747;SDS011;1889;50.058;8.688;2023-09-18T07:51:13;12.90;;;3.77;;
3747;SDS011;1889;50.058;8.688;2023-09-18T07:53:44;14.33;;;3.70;;
3747;SDS011;1889;50.058;8.688;2023-09-18T07:56:13;10.67;;;3.30;;
3747;SDS011;1889;50.058;8.688;2023-09-18T07:58:42;10.33;;;3.47;;
3747;SDS011;1889;50.058;8.688;2023-09-18T08:01:13;10.27;;;3.43;;
3747;SDS011;1889;50.058;8.688;2023-09-18T08:03:43;10.17;;;3.43;;
3747;SDS011;1889;50.058;8.688;2023-09-18T08:06:13;6.97;;;3.23;;
3747;SDS011;1889;50.058;8.688;2023-09-18T08:08:43;9.70;;;3.47;;
3747;SDS011;1889;50.058;8.688;2023-09-18T08:11:12;8.53;;;3.40;;
3747;SDS011;1889;50.058;8.688;2023-09-18T08:13:41;7.30;;;3.17;;
3747;SDS011;1889;50.058;8.688;2023-09-18T08:16:10;8.67;;;3.43;;
3747;SDS011;1889;50.058;8.688;2023-09-18T08:18:41;8.23;;;3.43;;
3747;SDS011;1889;50.058;8.688;2023-09-18T08:21:10;6.60;;;3.30;;
3747;SDS011;1889;50.058;8.688;2023-09-18T08:23:40;11.20;;;4.03;;
3747;SDS011;1889;50.058;8.688;2023-09-18T08:26:09;9.47;;;3.10;;
3747;SDS011;1889;50.058;8.688;2023-09-18T08:28:39;7.17;;;2.90;;
3747;SDS011;1889;50.058;8.688;2023-09-18T08:31:09;4.90;;;2.50;;
3747;SDS011;1889;50.058;8.688;2023-09-18T08:33:38;6.70;;;2.60;;
3747;SDS011;1889;50.058;8.688;2023-09-18T08:36:08;10.50;;;3.33;;
3747;SDS011;1889;50.058;8.688;2023-09-18T08:38:37;4.77;;;2.70;;
3747;SDS011;1889;50.058;8.688;2023-09-18T08:41:06;6.10;;;2.70;;
3747;SDS011;1889;50.058;8.688;2023-09-18T08:43:37;5.50;;;2.80;;
3747;SDS011;1889;50.058;8.688;2023-09-18T08:46:07;7.00;;;2.67;;
3747;SDS011;1889;50.058;8.688;2023-09-18T08:48:37;7.57;;;2.60;;
3747;SDS011;1889;50.058;8.688;2023-09-18T08:51:07;5.20;;;2.30;;
3747;SDS011;1889;50.058;8.688;2023-09-18T08:53:38;4.23;;;2.70;;
3747;SDS011;1889;50.058;8.688;2023-09-18T08:56:07;6.07;;;2.67;;
3747;SDS011;1889;50.058;8.688;2023-09-18T08:58:36;7.13;;;2.33;;
3747;SDS011;1889;50.058;8.688;2023-09-18T09:01:09;7.10;;;2.70;;
3747;SDS011;1889;50.058;8.688;2023-09-18T09:03:39;7.17;;;2.47;;
3747;SDS011;1889;50.058;8.688;2023-09-18T09:06:09;7.63;;;2.40;;
3747;SDS011;1889;50.058;8.688;2023-09-18T09:08:39;10.53;;;2.57;;
3747;SDS011;1889;50.058;8.688;2023-09-18T09:11:08;7.40;;;2.70;;
3747;SDS011;1889;50.058;8.688;2023-09-18T09:13:37;4.43;;;2.60;;
3747;SDS011;1889;50.058;8.688;2023-09-18T09:16:07;5.57;;;2.73;;
3747;SDS011;1889;50.058;8.688;2023-09-18T09:18:47;7.13;;;2.70;;
3747;SDS011;1889;50.058;8.688;2023-09-18T09:21:16;7.17;;;2.40;;
3747;SDS011;1889;50.058;8.688;2023-09-18T09:26:20;7.13;;;2.43;;
3747;SDS011;1889;50.058;8.688;2023-09-18T09:28:50;6.70;;;2.23;;
3747;SDS011;1889;50.058;8.688;2023-09-18T09:31:26;8.00;;;2.57;;
3747;SDS011;1889;50.058;8.688;2023-09-18T09:33:58;5.43;;;2.17;;
3747;SDS011;1889;50.058;8.688;2023-09-18T09:36:29;6.30;;;2.20;;
3747;SDS011;1889;50.058;8.688;2023-09-18T09:39:00;8.40;;;2.10;;
3747;SDS011;1889;50.058;8.688;2023-09-18T09:41:31;6.57;;;2.40;;
3747;SDS011;1889;50.058;8.688;2023-09-18T09:44:01;5.67;;;2.20;;
3747;SDS011;1889;50.058;8.688;2023-09-18T09:46:30;6.67;;;2.37;;
3747;SDS011;1889;50.058;8.688;2023-09-18T09:48:59;8.57;;;2.47;;
3747;SDS011;1889;50.058;8.688;2023-09-18T09:51:33;7.67;;;2.43;;
3747;SDS011;1889;50.058;8.688;2023-09-18T09:54:02;4.50;;;2.03;;
3747;SDS011;1889;50.058;8.688;2023-09-18T09:59:16;6.07;;;2.03;;
3747;SDS011;1889;50.058;8.688;2023-09-18T10:01:46;2.93;;;1.93;;
3747;SDS011;1889;50.058;8.688;2023-09-18T10:04:18;2.27;;;1.63;;
3747;SDS011;1889;50.058;8.688;2023-09-18T10:06:55;4.53;;;1.60;;
3747;SDS011;1889;50.058;8.688;2023-09-18T10:09:20;5.73;;;1.97;;
3747;SDS011;1889;50.058;8.688;2023-09-18T10:11:56;5.97;;;2.23;;
3747;SDS011;1889;50.058;8.688;2023-09-18T10:14:27;3.80;;;1.90;;
3747;SDS011;1889;50.058;8.688;2023-09-18T10:16:59;9.60;;;2.00;;
3747;SDS011;1889;50.058;8.688;2023-09-18T10:19:36;2.43;;;1.83;;
3747;SDS011;1889;50.058;8.688;2023-09-18T10:25:04;3.80;;;1.40;;
3747;SDS011;1889;50.058;8.688;2023-09-18T10:27:42;4.73;;;1.67;;
3747;SDS011;1889;50.058;8.688;2023-09-18T10:30:08;5.77;;;1.93;;
3747;SDS011;1889;50.058;8.688;2023-09-18T10:32:39;5.80;;;2.07;;
3747;SDS011;1889;50.058;8.688;2023-09-18T10:35:09;7.50;;;1.50;;
3747;SDS011;1889;50.058;8.688;2023-09-18T10:37:39;2.13;;;1.23;;
3747;SDS011;1889;50.058;8.688;2023-09-18T10:40:11;3.70;;;1.40;;
3747;SDS011;1889;50.058;8.688;2023-09-18T10:42:41;4.07;;;1.30;;
3747;SDS011;1889;50.058;8.688;2023-09-18T10:45:10;3.67;;;1.60;;
3747;SDS011;1889;50.058;8.688;2023-09-18T10:47:43;2.90;;;1.70;;
3747;SDS011;1889;50.058;8.688;2023-09-18T10:50:23;2.43;;;1.37;;
3747;SDS011;1889;50.058;8.688;2023-09-18T10:52:54;4.27;;;1.67;;
3747;SDS011;1889;50.058;8.688;2023-09-18T10:55:27;4.70;;;1.60;;
3747;SDS011;1889;50.058;8.688;2023-09-18T10:57:57;2.67;;;1.30;;
3747;SDS011;1889;50.058;8.688;2023-09-18T11:00:29;3.20;;;1.30;;
3747;SDS011;1889;50.058;8.688;2023-09-18T11:05:44;3.43;;;1.17;;
3747;SDS011;1889;50.058;8.688;2023-09-18T11:08:26;3.27;;;1.27;;
3747;SDS011;1889;50.058;8.688;2023-09-18T11:11:05;4.30;;;1.20;;
3747;SDS011;1889;50.058;8.688;2023-09-18T11:13:43;3.37;;;1.30;;
3747;SDS011;1889;50.058;8.688;2023-09-18T11:21:34;3.07;;;1.20;;
3747;SDS011;1889;50.058;8.688;2023-09-18T11:24:04;1.97;;;1.13;;
3747;SDS011;1889;50.058;8.688;2023-09-18T11:26:39;1.90;;;1.00;;
3747;SDS011;1889;50.058;8.688;2023-09-18T11:29:11;1.77;;;0.97;;
3747;SDS011;1889;50.058;8.688;2023-09-18T11:31:46;2.30;;;1.23;;
3747;SDS011;1889;50.058;8.688;2023-09-18T11:34:24;3.67;;;1.27;;
3747;SDS011;1889;50.058;8.688;2023-09-18T11:36:55;2.53;;;1.47;;
3747;SDS011;1889;50.058;8.688;2023-09-18T11:39:34;8.10;;;1.67;;
3747;SDS011;1889;50.058;8.688;2023-09-18T11:42:11;3.37;;;1.27;;
3747;SDS011;1889;50.058;8.688;2023-09-18T11:44:44;4.13;;;1.77;;
3747;SDS011;1889;50.058;8.688;2023-09-18T11:47:17;2.03;;;0.90;;
3747;SDS011;1889;50.058;8.688;2023-09-18T11:49:49;2.80;;;1.30;;
3747;SDS011;1889;50.058;8.688;2023-09-18T11:52:25;2.10;;;1.13;;
3747;SDS011;1889;50.058;8.688;2023-09-18T11:54:56;4.20;;;1.57;;
3747;SDS011;1889;50.058;8.688;2023-09-18T11:57:27;2.70;;;1.17;;
3747;SDS011;1889;50.058;8.688;2023-09-18T11:59:58;4.03;;;1.37;;
3747;SDS011;1889;50.058;8.688;2023-09-18T12:02:29;6.43;;;1.60;;
3747;SDS011;1889;50.058;8.688;2023-09-18T12:05:10;1.67;;;1.17;;
3747;SDS011;1889;50.058;8.688;2023-09-18T12:07:42;2.03;;;1.20;;
3747;SDS011;1889;50.058;8.688;2023-09-18T12:10:15;3.90;;;0.97;;
3747;SDS011;1889;50.058;8.688;2023-09-18T12:12:47;3.07;;;1.27;;
3747;SDS011;1889;50.058;8.688;2023-09-18T12:15:17;2.63;;;1.23;;
3747;SDS011;1889;50.058;8.688;2023-09-18T12:17:54;3.43;;;1.33;;
3747;SDS011;1889;50.058;8.688;2023-09-18T12:20:25;1.47;;;1.17;;
3747;SDS011;1889;50.058;8.688;2023-09-18T12:22:54;4.93;;;1.23;;
3747;SDS011;1889;50.058;8.688;2023-09-18T12:25:23;2.77;;;1.70;;
3747;SDS011;1889;50.058;8.688;2023-09-18T12:27:52;1.50;;;0.90;;
3747;SDS011;1889;50.058;8.688;2023-09-18T12:30:22;1.83;;;1.30;;
3747;SDS011;1889;50.058;8.688;2023-09-18T12:32:52;2.20;;;1.37;;
3747;SDS011;1889;50.058;8.688;2023-09-18T12:35:23;2.60;;;1.57;;
3747;SDS011;1889;50.058;8.688;2023-09-18T12:37:55;1.97;;;1.20;;
3747;SDS011;1889;50.058;8.688;2023-09-18T12:40:29;1.13;;;1.00;;
3747;SDS011;1889;50.058;8.688;2023-09-18T12:43:02;2.17;;;1.20;;
3747;SDS011;1889;50.058;8.688;2023-09-18T12:45:33;5.77;;;1.40;;
3747;SDS011;1889;50.058;8.688;2023-09-18T12:48:03;3.07;;;1.30;;
3747;SDS011;1889;50.058;8.688;2023-09-18T12:50:34;2.53;;;1.37;;
3747;SDS011;1889;50.058;8.688;2023-09-18T12:53:11;3.97;;;1.50;;
3747;SDS011;1889;50.058;8.688;2023-09-18T12:55:40;4.80;;;1.57;;
3747;SDS011;1889;50.058;8.688;2023-09-18T12:58:12;3.93;;;2.03;;
3747;SDS011;1889;50.058;8.688;2023-09-18T13:00:48;2.83;;;1.90;;
3747;SDS011;1889;50.058;8.688;2023-09-18T13:03:18;2.73;;;1.57;;
3747;SDS011;1889;50.058;8.688;2023-09-18T13:05:47;2.73;;;1.23;;
3747;SDS011;1889;50.058;8.688;2023-09-18T13:08:20;3.67;;;1.70;;
3747;SDS011;1889;50.058;8.688;2023-09-18T13:10:51;2.33;;;1.60;;
3747;SDS011;1889;50.058;8.688;2023-09-18T13:13:23;3.43;;;1.40;;
3747;SDS011;1889;50.058;8.688;2023-09-18T13:15:52;4.13;;;1.70;;
3747;SDS011;1889;50.058;8.688;2023-09-18T13:18:27;7.17;;;1.80;;
3747;SDS011;1889;50.058;8.688;2023-09-18T13:20:56;2.97;;;1.33;;
3747;SDS011;1889;50.058;8.688;2023-09-18T13:23:34;1.50;;;1.40;;
3747;SDS011;1889;50.058;8.688;2023-09-18T13:26:00;3.27;;;1.57;;
3747;SDS011;1889;50.058;8.688;2023-09-18T13:28:32;6.00;;;1.50;;
3747;SDS011;1889;50.058;8.688;2023-09-18T13:31:08;3.03;;;1.40;;
3747;SDS011;1889;50.058;8.688;2023-09-18T13:33:44;6.87;;;2.13;;
3747;SDS011;1889;50.058;8.688;2023-09-18T13:36:08;3.37;;;1.70;;
3747;SDS011;1889;50.058;8.688;2023-09-18T13:38:37;3.20;;;1.30;;
3747;SDS011;1889;50.058;8.688;2023-09-18T13:41:06;2.63;;;1.50;;
3747;SDS011;1889;50.058;8.688;2023-09-18T13:43:35;3.20;;;1.80;;
3747;SDS011;1889;50.058;8.688;2023-09-18T13:46:04;1.63;;;1.27;;
3747;SDS011;1889;50.058;8.688;2023-09-18T13:48:33;5.37;;;1.40;;
3747;SDS011;1889;50.058;8.688;2023-09-18T13:51:02;3.53;;;1.50;;
3747;SDS011;1889;50.058;8.688;2023-09-18T13:53:31;4.33;;;1.80;;
3747;SDS011;1889;50.058;8.688;2023-09-18T13:56:01;3.97;;;1.40;;
3747;SDS011;1889;50.058;8.688;2023-09-18T13:58:30;2.60;;;1.53;;
3747;SDS011;1889;50.058;8.688;2023-09-18T14:00:59;4.50;;;1.60;;
3747;SDS011;1889;50.058;8.688;2023-09-18T14:03:28;3.80;;;1.80;;
3747;SDS011;1889;50.058;8.688;2023-09-18T14:05:58;2.83;;;1.70;;
3747;SDS011;1889;50.058;8.688;2023-09-18T14:08:27;6.00;;;2.60;;
3747;SDS011;1889;50.058;8.688;2023-09-18T14:10:56;4.33;;;2.07;;
3747;SDS011;1889;50.058;8.688;2023-09-18T14:13:25;3.93;;;2.00;;
3747;SDS011;1889;50.058;8.688;2023-09-18T14:15:54;7.97;;;2.53;;
3747;SDS011;1889;50.058;8.688;2023-09-18T14:18:23;5.63;;;1.37;;
3747;SDS011;1889;50.058;8.688;2023-09-18T14:20:54;3.50;;;1.60;;
3747;SDS011;1889;50.058;8.688;2023-09-18T14:23:23;4.00;;;1.80;;
3747;SDS011;1889;50.058;8.688;2023-09-18T14:25:54;4.13;;;1.70;;
3747;SDS011;1889;50.058;8.688;2023-09-18T14:28:24;3.60;;;1.80;;
3747;SDS011;1889;50.058;8.688;2023-09-18T14:30:53;3.33;;;1.60;;
3747;SDS011;1889;50.058;8.688;2023-09-18T14:33:22;2.53;;;1.60;;
3747;SDS011;1889;50.058;8.688;2023-09-18T14:35:51;7.23;;;1.80;;
3747;SDS011;1889;50.058;8.688;2023-09-18T14:38:20;6.73;;;1.67;;
3747;SDS011;1889;50.058;8.688;2023-09-18T14:40:49;3.67;;;1.93;;
3747;SDS011;1889;50.058;8.688;2023-09-18T14:43:18;2.83;;;1.60;;
3747;SDS011;1889;50.058;8.688;2023-09-18T14:45:47;3.00;;;1.63;;
3747;SDS011;1889;50.058;8.688;2023-09-18T14:48:16;6.07;;;1.70;;
3747;SDS011;1889;50.058;8.688;2023-09-18T14:50:45;5.43;;;1.90;;
3747;SDS011;1889;50.058;8.688;2023-09-18T14:53:14;3.20;;;1.90;;
3747;SDS011;1889;50.058;8.688;2023-09-18T14:55:43;63.00;;;54.23;;
3747;SDS011;1889;50.058;8.688;2023-09-18T14:58:12;43.10;;;36.33;;
3747;SDS011;1889;50.058;8.688;2023-09-18T15:00:42;32.27;;;26.80;;
3747;SDS011;1889;50.058;8.688;2023-09-18T15:03:11;5.17;;;2.10;;
3747;SDS011;1889;50.058;8.688;2023-09-18T15:05:40;6.60;;;2.70;;
3747;SDS011;1889;50.058;8.688;2023-09-18T15:08:09;2.77;;;1.97;;
3747;SDS011;1889;50.058;8.688;2023-09-18T15:10:38;7.80;;;2.30;;
3747;SDS011;1889;50.058;8.688;2023-09-18T15:13:07;7.20;;;1.83;;
3747;SDS011;1889;50.058;8.688;2023-09-18T15:15:36;3.53;;;1.90;;
3747;SDS011;1889;50.058;8.688;2023-09-18T15:18:05;3.00;;;1.70;;
3747;SDS011;1889;50.058;8.688;2023-09-18T15:20:35;4.43;;;1.90;;
3747;SDS011;1889;50.058;8.688;2023-09-18T15:23:06;3.37;;;1.50;;
3747;SDS011;1889;50.058;8.688;2023-09-18T15:25:37;4.57;;;1.80;;
3747;SDS011;1889;50.058;8.688;2023-09-18T15:28:07;4.27;;;1.53;;
3747;SDS011;1889;50.058;8.688;2023-09-18T15:30:36;2.77;;;1.60;;
3747;SDS011;1889;50.058;8.688;2023-09-18T15:33:05;3.80;;;2.30;;
3747;SDS011;1889;50.058;8.688;2023-09-18T15:35:34;4.73;;;1.80;;
3747;SDS011;1889;50.058;8.688;2023-09-18T15:38:04;2.10;;;1.80;;
3747;SDS011;1889;50.058;8.688;2023-09-18T15:40:33;3.43;;;1.90;;
3747;SDS011;1889;50.058;8.688;2023-09-18T15:43:03;3.33;;;2.40;;
3747;SDS011;1889;50.058;8.688;2023-09-18T15:45:32;5.53;;;1.80;;
3747;SDS011;1889;50.058;8.688;2023-09-18T15:48:04;3.50;;;1.57;;
3747;SDS011;1889;50.058;8.688;2023-09-18T15:50:33;3.77;;;1.90;;